sensor_id;sensor_type;location;lat;lon;timestamp;pressure;altitude;pressure_sealevel;temperature;humidity
39449;BME280;25151;45.566;9.382;2023-04-22T00:02:42;69413.69;;;-144.97;100.00
39449;BME280;25151;45.566;9.382;2023-04-22T00:05:43;69413.69;;;-144.97;100.00
39449;BME280;25151;45.566;9.382;2023-04-22T00:08:44;69413.69;;;-144.97;100.00
39449;BME280;25151;45.566;9.382;2023-04-22T00:11:44;69413.69;;;-144.97;100.00
39449;BME280;25151;45.566;9.382;2023-04-22T00:14:45;69413.69;;;-144.97;100.00
39449;BME280;25151;45.566;9.382;2023-04-22T00:17:47;69413.69;;;-144.97;100.00
39449;BME280;25151;45.566;9.382;2023-04-22T00:20:47;69413.69;;;-144.97;100.00
39449;BME280;25151;45.566;9.382;2023-04-22T00:23:48;69413.69;;;-144.97;100.00
39449;BME280;25151;45.566;9.382;2023-04-22T00:26:49;69413.69;;;-144.97;100.00
39449;BME280;25151;45.566;9.382;2023-04-22T00:29:49;69413.69;;;-144.97;100.00
39449;BME280;25151;45.566;9.382;2023-04-22T00:32:50;69413.69;;;-144.97;100.00
39449;BME280;25151;45.566;9.382;2023-04-22T00:35:50;69413.69;;;-144.97;100.00
39449;BME280;25151;45.566;9.382;2023-04-22T00:38:51;69413.69;;;-144.97;100.00
39449;BME280;25151;45.566;9.382;2023-04-22T00:41:52;69413.69;;;-144.97;100.00
39449;BME280;25151;45.566;9.382;2023-04-22T00:44:53;69413.69;;;-144.97;100.00
39449;BME280;25151;45.566;9.382;2023-04-22T00:47:54;69413.69;;;-144.97;100.00
39449;BME280;25151;45.566;9.382;2023-04-22T00:50:55;69413.69;;;-144.97;100.00
39449;BME280;25151;45.566;9.382;2023-04-22T00:53:56;69413.69;;;-144.97;100.00
39449;BME280;25151;45.566;9.382;2023-04-22T00:56:57;69413.69;;;-144.97;100.00
39449;BME280;25151;45.566;9.382;2023-04-22T00:59:58;69413.69;;;-144.97;100.00
39449;BME280;25151;45.566;9.382;2023-04-22T01:02:59;69413.69;;;-144.97;100.00
39449;BME280;25151;45.566;9.382;2023-04-22T01:06:00;69413.69;;;-144.97;100.00
39449;BME280;25151;45.566;9.382;2023-04-22T01:09:00;69413.69;;;-144.97;100.00
39449;BME280;25151;45.566;9.382;2023-04-22T01:12:01;69413.69;;;-144.97;100.00
39449;BME280;25151;45.566;9.382;2023-04-22T01:15:02;69413.69;;;-144.97;100.00
39449;BME280;25151;45.566;9.382;2023-04-22T01:18:03;69413.69;;;-144.97;100.00
39449;BME280;25151;45.566;9.382;2023-04-22T01:21:04;69413.69;;;-144.97;100.00
39449;BME280;25151;45.566;9.382;2023-04-22T01:24:07;69413.69;;;-144.97;100.00
39449;BME280;25151;45.566;9.382;2023-04-22T01:27:08;69413.69;;;-144.97;100.00
39449;BME280;25151;45.566;9.382;2023-04-22T01:30:09;69413.69;;;-144.97;100.00
39449;BME280;25151;45.566;9.382;2023-04-22T01:33:11;69413.69;;;-144.97;100.00
39449;BME280;25151;45.566;9.382;2023-04-22T01:36:11;69413.69;;;-144.97;100.00
39449;BME280;25151;45.566;9.382;2023-04-22T01:39:12;69413.69;;;-144.97;100.00
39449;BME280;25151;45.566;9.382;2023-04-22T01:42:13;69413.69;;;-144.97;100.00
39449;BME280;25151;45.566;9.382;2023-04-22T01:45:14;69413.69;;;-144.97;100.00
39449;BME280;25151;45.566;9.382;2023-04-22T01:48:16;69413.69;;;-144.97;100.00
39449;BME280;25151;45.566;9.382;2023-04-22T01:51:18;69413.69;;;-144.97;100.00
39449;BME280;25151;45.566;9.382;2023-04-22T01:54:22;69413.69;;;-144.97;100.00
39449;BME280;25151;45.566;9.382;2023-04-22T01:57:23;69413.69;;;-144.97;100.00
39449;BME280;25151;45.566;9.382;2023-04-22T02:00:23;69413.69;;;-144.97;100.00
39449;BME280;25151;45.566;9.382;2023-04-22T02:03:24;69413.69;;;-144.97;100.00
39449;BME280;25151;45.566;9.382;2023-04-22T02:06:25;69413.69;;;-144.97;100.00
39449;BME280;25151;45.566;9.382;2023-04-22T02:09:26;69413.69;;;-144.97;100.00
39449;BME280;25151;45.566;9.382;2023-04-22T02:12:27;69413.69;;;-144.97;100.00
39449;BME280;25151;45.566;9.382;2023-04-22T02:15:27;69413.69;;;-144.97;100.00
39449;BME280;25151;45.566;9.382;2023-04-22T02:18:28;69413.69;;;-144.97;100.00
39449;BME280;25151;45.566;9.382;2023-04-22T02:21:30;69413.69;;;-144.97;100.00
39449;BME280;25151;45.566;9.382;2023-04-22T02:24:33;69413.69;;;-144.97;100.00
39449;BME280;25151;45.566;9.382;2023-04-22T02:27:34;69413.69;;;-144.97;100.00
39449;BME280;25151;45.566;9.382;2023-04-22T02:30:34;69413.69;;;-144.97;100.00
39449;BME280;25151;45.566;9.382;2023-04-22T02:33:35;69413.69;;;-144.97;100.00
39449;BME280;25151;45.566;9.382;2023-04-22T02:36:35;69413.69;;;-144.97;100.00
39449;BME280;25151;45.566;9.382;2023-04-22T02:39:36;69413.69;;;-144.97;100.00
39449;BME280;25151;45.566;9.382;2023-04-22T02:42:36;69413.69;;;-144.97;100.00
39449;BME280;25151;45.566;9.382;2023-04-22T02:45:37;69413.69;;;-144.97;100.00
39449;BME280;25151;45.566;9.382;2023-04-22T02:48:40;69413.69;;;-144.97;100.00
39449;BME280;25151;45.566;9.382;2023-04-22T02:51:40;69413.69;;;-144.97;100.00
39449;BME280;25151;45.566;9.382;2023-04-22T02:54:41;69413.69;;;-144.97;100.00
39449;BME280;25151;45.566;9.382;2023-04-22T02:57:41;69413.69;;;-144.97;100.00
39449;BME280;25151;45.566;9.382;2023-04-22T03:00:42;69413.69;;;-144.97;100.00
39449;BME280;25151;45.566;9.382;2023-04-22T03:03:42;69413.69;;;-144.97;100.00
39449;BME280;25151;45.566;9.382;2023-04-22T03:06:43;69413.69;;;-144.97;100.00
39449;BME280;25151;45.566;9.382;2023-04-22T03:09:43;69413.69;;;-144.97;100.00
39449;BME280;25151;45.566;9.382;2023-04-22T03:12:44;69413.69;;;-144.97;100.00
39449;BME280;25151;45.566;9.382;2023-04-22T03:15:45;69413.69;;;-144.97;100.00
39449;BME280;25151;45.566;9.382;2023-04-22T03:18:45;69413.69;;;-144.97;100.00
39449;BME280;25151;45.566;9.382;2023-04-22T03:21:46;69413.69;;;-144.97;100.00
39449;BME280;25151;45.566;9.382;2023-04-22T03:24:46;69413.69;;;-144.97;100.00
39449;BME280;25151;45.566;9.382;2023-04-22T03:27:47;69413.69;;;-144.97;100.00
39449;BME280;25151;45.566;9.382;2023-04-22T03:30:48;69413.69;;;-144.97;100.00
39449;BME280;25151;45.566;9.382;2023-04-22T03:33:48;69413.69;;;-144.97;100.00
39449;BME280;25151;45.566;9.382;2023-04-22T03:36:49;69413.69;;;-144.97;100.00
39449;BME280;25151;45.566;9.382;2023-04-22T03:39:49;69413.69;;;-144.97;100.00
39449;BME280;25151;45.566;9.382;2023-04-22T03:42:50;69413.69;;;-144.97;100.00
39449;BME280;25151;45.566;9.382;2023-04-22T03:45:50;69413.69;;;-144.97;100.00
39449;BME280;25151;45.566;9.382;2023-04-22T03:48:51;69413.69;;;-144.97;100.00
39449;BME280;25151;45.566;9.382;2023-04-22T03:51:51;69413.69;;;-144.97;100.00
39449;BME280;25151;45.566;9.382;2023-04-22T03:54:52;69413.69;;;-144.97;100.00
39449;BME280;25151;45.566;9.382;2023-04-22T03:57:52;69413.69;;;-144.97;100.00
39449;BME280;25151;45.566;9.382;2023-04-22T04:00:53;69413.69;;;-144.97;100.00
39449;BME280;25151;45.566;9.382;2023-04-22T04:03:54;69413.69;;;-144.97;100.00
39449;BME280;25151;45.566;9.382;2023-04-22T04:06:55;69413.69;;;-144.97;100.00
39449;BME280;25151;45.566;9.382;2023-04-22T04:09:55;69413.69;;;-144.97;100.00
39449;BME280;25151;45.566;9.382;2023-04-22T04:12:56;69413.69;;;-144.97;100.00
39449;BME280;25151;45.566;9.382;2023-04-22T04:15:59;69413.69;;;-144.97;100.00
39449;BME280;25151;45.566;9.382;2023-04-22T04:19:00;69413.69;;;-144.97;100.00
39449;BME280;25151;45.566;9.382;2023-04-22T04:22:01;69413.69;;;-144.97;100.00
39449;BME280;25151;45.566;9.382;2023-04-22T04:25:02;69413.69;;;-144.97;100.00
39449;BME280;25151;45.566;9.382;2023-04-22T04:28:04;69413.69;;;-144.97;100.00
39449;BME280;25151;45.566;9.382;2023-04-22T04:31:08;69413.69;;;-144.97;100.00
39449;BME280;25151;45.566;9.382;2023-04-22T04:34:10;69413.69;;;-144.97;100.00
39449;BME280;25151;45.566;9.382;2023-04-22T04:37:10;69413.69;;;-144.97;100.00
39449;BME280;25151;45.566;9.382;2023-04-22T04:40:11;69413.69;;;-144.97;100.00
39449;BME280;25151;45.566;9.382;2023-04-22T04:43:18;69413.69;;;-144.97;100.00
39449;BME280;25151;45.566;9.382;2023-04-22T04:46:19;69413.69;;;-144.97;100.00
39449;BME280;25151;45.566;9.382;2023-04-22T04:49:20;69413.69;;;-144.97;100.00
39449;BME280;25151;45.566;9.382;2023-04-22T04:52:20;69413.69;;;-144.97;100.00
39449;BME280;25151;45.566;9.382;2023-04-22T04:55:21;69413.69;;;-144.97;100.00
39449;BME280;25151;45.566;9.382;2023-04-22T04:58:21;69413.69;;;-144.97;100.00
39449;BME280;25151;45.566;9.382;2023-04-22T05:01:22;69413.69;;;-144.97;100.00
39449;BME280;25151;45.566;9.382;2023-04-22T05:04:23;69413.69;;;-144.97;100.00
39449;BME280;25151;45.566;9.382;2023-04-22T05:07:23;69413.69;;;-144.97;100.00
39449;BME280;25151;45.566;9.382;2023-04-22T05:10:24;69413.69;;;-144.97;100.00
39449;BME280;25151;45.566;9.382;2023-04-22T05:13:25;69413.69;;;-144.97;100.00
39449;BME280;25151;45.566;9.382;2023-04-22T05:16:27;69413.69;;;-144.97;100.00
39449;BME280;25151;45.566;9.382;2023-04-22T05:19:28;69413.69;;;-144.97;100.00
39449;BME280;25151;45.566;9.382;2023-04-22T05:22:28;69413.69;;;-144.97;100.00
39449;BME280;25151;45.566;9.382;2023-04-22T05:25:29;69413.69;;;-144.97;100.00
39449;BME280;25151;45.566;9.382;2023-04-22T05:28:29;69413.69;;;-144.97;100.00
39449;BME280;25151;45.566;9.382;2023-04-22T05:31:30;69413.69;;;-144.97;100.00
39449;BME280;25151;45.566;9.382;2023-04-22T05:36:28;99667.78;;;19.54;58.79
39449;BME280;25151;45.566;9.382;2023-04-22T05:39:29;99678.28;;;19.50;58.82
39449;BME280;25151;45.566;9.382;2023-04-22T05:42:30;99669.59;;;19.48;58.94
39449;BME280;25151;45.566;9.382;2023-04-22T05:45:30;99666.34;;;19.50;58.97
39449;BME280;25151;45.566;9.382;2023-04-22T05:48:31;99667.09;;;19.50;58.99
39449;BME280;25151;45.566;9.382;2023-04-22T05:51:31;99661.53;;;19.50;58.79
39449;BME280;25151;45.566;9.382;2023-04-22T05:54:32;99673.47;;;19.51;59.11
39449;BME280;25151;45.566;9.382;2023-04-22T05:57:32;99661.53;;;19.50;58.72
39449;BME280;25151;45.566;9.382;2023-04-22T06:00:33;99660.28;;;19.51;58.93
39449;BME280;25151;45.566;9.382;2023-04-22T06:03:34;99662.28;;;19.51;59.01
39449;BME280;25151;45.566;9.382;2023-04-22T06:06:34;99672.69;;;19.50;58.83
39449;BME280;25151;45.566;9.382;2023-04-22T06:09:35;99668.66;;;19.51;58.84
39449;BME280;25151;45.566;9.382;2023-04-22T06:12:36;99674.25;;;19.51;59.05
39449;BME280;25151;45.566;9.382;2023-04-22T06:15:37;99674.25;;;19.51;59.06
39449;BME280;25151;45.566;9.382;2023-04-22T06:18:37;99671.81;;;19.53;59.05
39449;BME280;25151;45.566;9.382;2023-04-22T06:21:38;99677.41;;;19.53;59.22
39449;BME280;25151;45.566;9.382;2023-04-22T06:24:39;99667.78;;;19.54;59.06
39449;BME280;25151;45.566;9.382;2023-04-22T06:27:40;99667.00;;;19.54;59.32
39449;BME280;25151;45.566;9.382;2023-04-22T06:30:40;99669.34;;;19.55;59.32
39449;BME280;25151;45.566;9.382;2023-04-22T06:33:41;99665.00;;;19.54;59.17
39449;BME280;25151;45.566;9.382;2023-04-22T06:36:44;99662.53;;;19.56;59.25
39449;BME280;25151;45.566;9.382;2023-04-22T06:39:44;99658.16;;;19.55;59.34
39449;BME280;25151;45.566;9.382;2023-04-22T06:42:45;99668.13;;;19.56;59.32
39449;BME280;25151;45.566;9.382;2023-04-22T06:45:46;99665.34;;;19.56;59.40
39449;BME280;25151;45.566;9.382;2023-04-22T06:48:46;99666.56;;;19.55;59.45
39449;BME280;25151;45.566;9.382;2023-04-22T06:51:47;99674.94;;;19.55;59.46
39449;BME280;25151;45.566;9.382;2023-04-22T06:54:47;99685.34;;;19.55;59.30
39449;BME280;25151;45.566;9.382;2023-04-22T06:57:49;99679.75;;;19.55;59.48
39449;BME280;25151;45.566;9.382;2023-04-22T07:00:50;99687.38;;;19.54;59.50
39449;BME280;25151;45.566;9.382;2023-04-22T07:03:51;99685.81;;;19.53;59.19
39449;BME280;25151;45.566;9.382;2023-04-22T07:06:51;99689.38;;;19.54;59.20
39449;BME280;25151;45.566;9.382;2023-04-22T07:09:52;99698.56;;;19.54;59.27
39449;BME280;25151;45.566;9.382;2023-04-22T07:12:53;99701.34;;;19.54;59.33
39449;BME280;25151;45.566;9.382;2023-04-22T07:15:53;99701.34;;;19.54;59.48
39449;BME280;25151;45.566;9.382;2023-04-22T07:18:54;99705.69;;;19.55;59.37
39449;BME280;25151;45.566;9.382;2023-04-22T07:21:55;99702.91;;;19.55;59.25
39449;BME280;25151;45.566;9.382;2023-04-22T07:24:55;99708.19;;;19.53;59.11
39449;BME280;25151;45.566;9.382;2023-04-22T07:27:56;99709.28;;;19.56;59.12
39449;BME280;25151;45.566;9.382;2023-04-22T07:30:56;99700.56;;;19.54;59.10
39449;BME280;25151;45.566;9.382;2023-04-22T07:33:57;99700.09;;;19.55;59.06
39449;BME280;25151;45.566;9.382;2023-04-22T07:36:58;99700.09;;;19.55;59.23
39449;BME280;25151;45.566;9.382;2023-04-22T07:39:58;99692.50;;;19.56;58.99
39449;BME280;25151;45.566;9.382;2023-04-22T07:43:00;99690.16;;;19.54;58.94
39449;BME280;25151;45.566;9.382;2023-04-22T07:46:00;99691.72;;;19.55;59.13
39449;BME280;25151;45.566;9.382;2023-04-22T07:49:01;99690.94;;;19.55;59.10
39449;BME280;25151;45.566;9.382;2023-04-22T07:52:01;99691.72;;;19.55;58.92
39449;BME280;25151;45.566;9.382;2023-04-22T07:55:02;99684.91;;;19.56;59.10
39449;BME280;25151;45.566;9.382;2023-04-22T07:58:04;99688.94;;;19.55;58.89
39449;BME280;25151;45.566;9.382;2023-04-22T08:01:05;99688.13;;;19.55;58.89
39449;BME280;25151;45.566;9.382;2023-04-22T08:04:06;99697.31;;;19.55;58.96
39449;BME280;25151;45.566;9.382;2023-04-22T08:07:07;99694.09;;;19.57;58.82
39449;BME280;25151;45.566;9.382;2023-04-22T08:10:08;99693.63;;;19.58;58.92
39449;BME280;25151;45.566;9.382;2023-04-22T08:13:08;99699.22;;;19.58;59.06
39449;BME280;25151;45.566;9.382;2023-04-22T08:16:09;99692.41;;;19.59;58.99
39449;BME280;25151;45.566;9.382;2023-04-22T08:19:10;99693.97;;;19.60;58.78
39449;BME280;25151;45.566;9.382;2023-04-22T08:22:11;99700.34;;;19.61;58.91
39449;BME280;25151;45.566;9.382;2023-04-22T08:25:12;99697.56;;;19.61;58.80
39449;BME280;25151;45.566;9.382;2023-04-22T08:28:15;99690.75;;;19.62;58.89
39449;BME280;25151;45.566;9.382;2023-04-22T08:31:15;99694.34;;;19.62;58.74
39449;BME280;25151;45.566;9.382;2023-04-22T08:34:16;99677.91;;;19.64;58.87
39449;BME280;25151;45.566;9.382;2023-04-22T08:37:16;99682.72;;;19.64;58.77
39449;BME280;25151;45.566;9.382;2023-04-22T08:40:17;99690.66;;;19.65;58.78
39449;BME280;25151;45.566;9.382;2023-04-22T08:43:18;99697.81;;;19.67;58.89
39449;BME280;25151;45.566;9.382;2023-04-22T08:46:19;99686.63;;;19.67;58.97
39449;BME280;25151;45.566;9.382;2023-04-22T08:49:22;99684.19;;;19.69;58.82
39449;BME280;25151;45.566;9.382;2023-04-22T08:52:23;99680.13;;;19.70;58.69
39449;BME280;25151;45.566;9.382;2023-04-22T08:55:24;99679.38;;;19.69;58.46
39449;BME280;25151;45.566;9.382;2023-04-22T08:58:27;99682.94;;;19.70;58.89
39449;BME280;25151;45.566;9.382;2023-04-22T09:01:30;99682.94;;;19.70;58.78
39449;BME280;25151;45.566;9.382;2023-04-22T09:04:31;99675.31;;;19.70;58.78
39449;BME280;25151;45.566;9.382;2023-04-22T09:07:32;99682.47;;;19.71;58.67
39449;BME280;25151;45.566;9.382;2023-04-22T09:10:35;99684.84;;;19.73;58.61
39449;BME280;25151;45.566;9.382;2023-04-22T09:13:36;99673.66;;;19.73;58.65
39449;BME280;25151;45.566;9.382;2023-04-22T09:16:40;99678.03;;;19.74;58.74
39449;BME280;25151;45.566;9.382;2023-04-22T09:19:42;99680.81;;;19.74;58.56
39449;BME280;25151;45.566;9.382;2023-04-22T09:22:45;99671.19;;;19.75;58.75
39449;BME280;25151;45.566;9.382;2023-04-22T09:25:46;99678.34;;;19.76;58.78
39449;BME280;25151;45.566;9.382;2023-04-22T09:28:55;99671.53;;;19.77;58.56
39449;BME280;25151;45.566;9.382;2023-04-22T09:31:58;99663.91;;;19.77;58.76
39449;BME280;25151;45.566;9.382;2023-04-22T09:35:00;99669.06;;;19.79;58.56
39449;BME280;25151;45.566;9.382;2023-04-22T09:38:02;99669.06;;;19.79;58.55
39449;BME280;25151;45.566;9.382;2023-04-22T09:41:08;99663.81;;;19.81;58.62
39449;BME280;25151;45.566;9.382;2023-04-22T09:44:14;99656.66;;;19.80;58.32
39449;BME280;25151;45.566;9.382;2023-04-22T09:47:15;99643.88;;;19.79;58.76
39449;BME280;25151;45.566;9.382;2023-04-22T09:50:19;99649.03;;;19.80;58.49
39449;BME280;25151;45.566;9.382;2023-04-22T09:53:20;99644.22;;;19.81;58.62
39449;BME280;25151;45.566;9.382;2023-04-22T09:56:21;99643.44;;;19.80;58.49
39449;BME280;25151;45.566;9.382;2023-04-22T09:59:25;99642.22;;;19.81;58.52
39449;BME280;25151;45.566;9.382;2023-04-22T10:02:27;99645.78;;;19.82;58.86
39449;BME280;25151;45.566;9.382;2023-04-22T10:05:28;99644.53;;;19.83;58.35
39449;BME280;25151;45.566;9.382;2023-04-22T10:08:31;99638.94;;;19.83;58.50
39449;BME280;25151;45.566;9.382;2023-04-22T10:11:33;99634.94;;;19.84;58.23
39449;BME280;25151;45.566;9.382;2023-04-22T10:14:33;99634.13;;;19.83;58.44
39449;BME280;25151;45.566;9.382;2023-04-22T10:17:36;99632.47;;;19.86;58.33
39449;BME280;25151;45.566;9.382;2023-04-22T10:20:40;99626.88;;;19.86;58.46
39449;BME280;25151;45.566;9.382;2023-04-22T10:23:47;99628.44;;;19.87;58.45
39449;BME280;25151;45.566;9.382;2023-04-22T10:29:49;99619.50;;;19.92;58.32
39449;BME280;25151;45.566;9.382;2023-04-22T10:32:51;99610.28;;;19.92;58.08
39449;BME280;25151;45.566;9.382;2023-04-22T10:39:15;99612.66;;;19.93;58.37
39449;BME280;25151;45.566;9.382;2023-04-22T10:42:18;99612.97;;;19.95;58.32
39449;BME280;25151;45.566;9.382;2023-04-22T10:45:24;99610.97;;;19.96;58.41
39449;BME280;25151;45.566;9.382;2023-04-22T10:48:46;99610.53;;;19.97;58.24
39449;BME280;25151;45.566;9.382;2023-04-22T10:51:57;99605.69;;;19.98;58.43
39449;BME280;25151;45.566;9.382;2023-04-22T10:54:58;99610.41;;;20.01;58.44
39449;BME280;25151;45.566;9.382;2023-04-22T10:57:59;99604.03;;;20.00;58.43
39449;BME280;25151;45.566;9.382;2023-04-22T11:01:13;99603.56;;;20.02;58.17
39449;BME280;25151;45.566;9.382;2023-04-22T11:04:22;99602.31;;;20.03;58.31
39449;BME280;25151;45.566;9.382;2023-04-22T11:10:35;99597.50;;;20.03;58.47
39449;BME280;25151;45.566;9.382;2023-04-22T11:13:42;99595.06;;;20.05;58.40
39449;BME280;25151;45.566;9.382;2023-04-22T11:16:50;99592.25;;;20.05;58.26
39449;BME280;25151;45.566;9.382;2023-04-22T11:19:50;99589.44;;;20.05;58.76
39449;BME280;25151;45.566;9.382;2023-04-22T11:22:56;99591.78;;;20.07;58.65
39449;BME280;25151;45.566;9.382;2023-04-22T11:26:00;99579.38;;;20.08;58.52
39449;BME280;25151;45.566;9.382;2023-04-22T11:29:02;99590.91;;;20.10;58.54
39449;BME280;25151;45.566;9.382;2023-04-22T11:32:03;99586.06;;;20.10;58.59
39449;BME280;25151;45.566;9.382;2023-04-22T11:35:06;99584.53;;;20.09;58.45
39449;BME280;25151;45.566;9.382;2023-04-22T11:38:08;99580.47;;;20.10;58.60
39449;BME280;25151;45.566;9.382;2023-04-22T11:41:08;99574.88;;;20.10;58.57
39449;BME280;25151;45.566;9.382;2023-04-22T11:44:13;99580.81;;;20.12;58.46
39449;BME280;25151;45.566;9.382;2023-04-22T11:47:14;99573.19;;;20.13;58.70
39449;BME280;25151;45.566;9.382;2023-04-22T11:50:15;99569.16;;;20.14;58.47
39449;BME280;25151;45.566;9.382;2023-04-22T11:53:17;99574.75;;;20.14;58.67
39449;BME280;25151;45.566;9.382;2023-04-22T11:56:19;99567.13;;;20.14;58.68
39449;BME280;25151;45.566;9.382;2023-04-22T11:59:23;99558.75;;;20.14;58.60
39449;BME280;25151;45.566;9.382;2023-04-22T12:02:24;99565.94;;;20.16;58.61
39449;BME280;25151;45.566;9.382;2023-04-22T12:05:35;99561.88;;;20.17;58.58
39449;BME280;25151;45.566;9.382;2023-04-22T12:08:38;99557.06;;;20.17;58.49
39449;BME280;25151;45.566;9.382;2023-04-22T12:11:43;99548.97;;;20.19;58.61
39449;BME280;25151;45.566;9.382;2023-04-22T12:14:45;99544.19;;;20.20;58.76
39449;BME280;25151;45.566;9.382;2023-04-22T12:17:49;99540.16;;;20.21;58.77
39449;BME280;25151;45.566;9.382;2023-04-22T12:20:50;99537.34;;;20.21;58.72
39449;BME280;25151;45.566;9.382;2023-04-22T12:23:56;99540.94;;;20.21;58.58
39449;BME280;25151;45.566;9.382;2023-04-22T12:26:58;99531.41;;;20.19;58.83
39449;BME280;25151;45.566;9.382;2023-04-22T12:29:58;99536.69;;;20.17;58.72
39449;BME280;25151;45.566;9.382;2023-04-22T12:32:59;99532.34;;;20.16;58.59
39449;BME280;25151;45.566;9.382;2023-04-22T12:36:00;99534.78;;;20.13;58.51
39449;BME280;25151;45.566;9.382;2023-04-22T12:39:00;99520.78;;;20.13;58.53
39449;BME280;25151;45.566;9.382;2023-04-22T12:42:01;99521.25;;;20.12;58.44
39449;BME280;25151;45.566;9.382;2023-04-22T12:45:04;99523.28;;;20.11;58.43
39449;BME280;25151;45.566;9.382;2023-04-22T12:48:05;99515.31;;;20.10;58.26
39449;BME280;25151;45.566;9.382;2023-04-22T12:51:05;99518.91;;;20.10;58.20
39449;BME280;25151;45.566;9.382;2023-04-22T12:54:06;99516.09;;;20.10;58.24
39449;BME280;25151;45.566;9.382;2023-04-22T12:57:06;99512.53;;;20.10;58.46
39449;BME280;25151;45.566;9.382;2023-04-22T13:00:07;99513.28;;;20.10;58.26
39449;BME280;25151;45.566;9.382;2023-04-22T13:03:13;99505.69;;;20.11;58.16
39449;BME280;25151;45.566;9.382;2023-04-22T13:06:15;99504.91;;;20.10;58.14
39449;BME280;25151;45.566;9.382;2023-04-22T13:09:16;99503.81;;;20.08;57.97
39449;BME280;25151;45.566;9.382;2023-04-22T13:12:16;99511.75;;;20.09;58.00
39449;BME280;25151;45.566;9.382;2023-04-22T13:15:17;99496.19;;;20.08;57.87
39449;BME280;25151;45.566;9.382;2023-04-22T13:18:18;99483.41;;;20.07;57.90
39449;BME280;25151;45.566;9.382;2023-04-22T13:21:19;99491.03;;;20.07;57.85
39449;BME280;25151;45.566;9.382;2023-04-22T13:24:19;99491.03;;;20.07;57.96
39449;BME280;25151;45.566;9.382;2023-04-22T13:27:20;99475.00;;;20.07;57.94
39449;BME280;25151;45.566;9.382;2023-04-22T13:30:22;99475.00;;;20.07;57.93
39449;BME280;25151;45.566;9.382;2023-04-22T13:33:22;99469.41;;;20.07;57.88
39449;BME280;25151;45.566;9.382;2023-04-22T13:36:23;99474.09;;;20.10;58.08
39449;BME280;25151;45.566;9.382;2023-04-22T13:39:24;99464.50;;;20.11;57.99
39449;BME280;25151;45.566;9.382;2023-04-22T13:42:24;99460.75;;;20.14;58.08
39449;BME280;25151;45.566;9.382;2023-04-22T13:45:25;99463.56;;;20.14;58.11
39449;BME280;25151;45.566;9.382;2023-04-22T13:48:26;99465.16;;;20.16;58.10
39449;BME280;25151;45.566;9.382;2023-04-22T13:51:27;99447.53;;;20.15;58.40
39449;BME280;25151;45.566;9.382;2023-04-22T13:54:28;99455.50;;;20.17;58.50
39449;BME280;25151;45.566;9.382;2023-04-22T13:57:29;99449.13;;;20.16;58.67
39449;BME280;25151;45.566;9.382;2023-04-22T14:00:29;99444.31;;;20.17;58.57
39449;BME280;25151;45.566;9.382;2023-04-22T14:03:30;99447.88;;;20.17;58.45
39449;BME280;25151;45.566;9.382;2023-04-22T14:06:31;99447.09;;;20.17;58.68
39449;BME280;25151;45.566;9.382;2023-04-22T14:09:32;99450.69;;;20.17;58.74
39449;BME280;25151;45.566;9.382;2023-04-22T14:12:33;99447.09;;;20.17;58.82
39449;BME280;25151;45.566;9.382;2023-04-22T14:15:34;99446.78;;;20.14;58.59
39449;BME280;25151;45.566;9.382;2023-04-22T14:18:35;99445.22;;;20.13;58.70
39449;BME280;25151;45.566;9.382;2023-04-22T14:21:36;99444.44;;;20.13;58.82
39449;BME280;25151;45.566;9.382;2023-04-22T14:24:37;99443.66;;;20.12;58.74
39449;BME280;25151;45.566;9.382;2023-04-22T14:27:37;99442.88;;;20.12;58.58
39449;BME280;25151;45.566;9.382;2023-04-22T14:30:38;99442.88;;;20.12;58.58
39449;BME280;25151;45.566;9.382;2023-04-22T14:33:39;99441.28;;;20.11;58.66
39449;BME280;25151;45.566;9.382;2023-04-22T14:36:40;99437.72;;;20.10;58.70
39449;BME280;25151;45.566;9.382;2023-04-22T14:39:40;99430.56;;;20.09;58.55
39449;BME280;25151;45.566;9.382;2023-04-22T14:42:41;99427.78;;;20.09;58.60
39449;BME280;25151;45.566;9.382;2023-04-22T14:45:44;99429.00;;;20.08;58.38
39449;BME280;25151;45.566;9.382;2023-04-22T14:48:45;99431.81;;;20.08;58.47
39449;BME280;25151;45.566;9.382;2023-04-22T14:51:46;99429.00;;;20.08;58.65
39449;BME280;25151;45.566;9.382;2023-04-22T14:54:47;99424.19;;;20.09;58.57
39449;BME280;25151;45.566;9.382;2023-04-22T14:57:49;99424.63;;;20.07;58.37
39449;BME280;25151;45.566;9.382;2023-04-22T15:00:50;99416.56;;;20.09;58.40
39449;BME280;25151;45.566;9.382;2023-04-22T15:03:50;99420.63;;;20.08;58.32
39449;BME280;25151;45.566;9.382;2023-04-22T15:06:51;99420.63;;;20.08;58.54
39449;BME280;25151;45.566;9.382;2023-04-22T15:09:56;99419.84;;;20.08;58.32
39449;BME280;25151;45.566;9.382;2023-04-22T15:12:57;99422.16;;;20.09;58.45
39449;BME280;25151;45.566;9.382;2023-04-22T15:15:59;99413.44;;;20.07;58.57
39449;BME280;25151;45.566;9.382;2023-04-22T15:19:00;99419.03;;;20.07;58.46
39449;BME280;25151;45.566;9.382;2023-04-22T15:22:01;99409.09;;;20.06;58.46
39449;BME280;25151;45.566;9.382;2023-04-22T15:25:02;99415.91;;;20.05;58.74
39449;BME280;25151;45.566;9.382;2023-04-22T15:28:03;99410.31;;;20.05;58.53
39449;BME280;25151;45.566;9.382;2023-04-22T15:31:04;99407.53;;;20.05;58.55
39449;BME280;25151;45.566;9.382;2023-04-22T15:34:04;99404.72;;;20.05;58.26
39449;BME280;25151;45.566;9.382;2023-04-22T15:37:05;99409.09;;;20.06;58.39
39449;BME280;25151;45.566;9.382;2023-04-22T15:40:06;99411.09;;;20.06;58.25
39449;BME280;25151;45.566;9.382;2023-04-22T15:43:07;99401.59;;;20.03;58.15
39449;BME280;25151;45.566;9.382;2023-04-22T15:46:07;99412.78;;;20.03;58.31
39449;BME280;25151;45.566;9.382;2023-04-22T15:49:08;99412.78;;;20.03;58.40
39449;BME280;25151;45.566;9.382;2023-04-22T15:52:09;99407.19;;;20.03;58.29
39449;BME280;25151;45.566;9.382;2023-04-22T15:55:10;99407.66;;;20.02;58.27
39449;BME280;25151;45.566;9.382;2023-04-22T15:58:10;99407.19;;;20.03;58.23
39449;BME280;25151;45.566;9.382;2023-04-22T16:01:11;99404.72;;;20.05;58.35